sensor_id;sensor_type;location;lat;lon;timestamp;temperature;humidity
4366;DHT22;2196;47.422;9.656;2023-05-15T00:02:19;11.20;99.90
4366;DHT22;2196;47.422;9.656;2023-05-15T00:04:46;11.20;99.90
4366;DHT22;2196;47.422;9.656;2023-05-15T00:07:13;11.20;99.90
4366;DHT22;2196;47.422;9.656;2023-05-15T00:09:42;11.20;99.90
4366;DHT22;2196;47.422;9.656;2023-05-15T00:12:09;11.20;99.90
4366;DHT22;2196;47.422;9.656;2023-05-15T00:14:36;11.20;99.90
4366;DHT22;2196;47.422;9.656;2023-05-15T00:17:03;11.20;99.90
4366;DHT22;2196;47.422;9.656;2023-05-15T00:19:30;11.20;99.90
4366;DHT22;2196;47.422;9.656;2023-05-15T00:21:57;11.20;99.90
4366;DHT22;2196;47.422;9.656;2023-05-15T00:24:24;11.20;99.90
4366;DHT22;2196;47.422;9.656;2023-05-15T00:26:52;11.10;99.90
4366;DHT22;2196;47.422;9.656;2023-05-15T00:29:19;11.10;99.90
4366;DHT22;2196;47.422;9.656;2023-05-15T00:31:46;11.10;99.90
4366;DHT22;2196;47.422;9.656;2023-05-15T00:34:13;11.10;99.90
4366;DHT22;2196;47.422;9.656;2023-05-15T00:36:40;11.10;99.90
4366;DHT22;2196;47.422;9.656;2023-05-15T00:39:07;11.10;99.90
4366;DHT22;2196;47.422;9.656;2023-05-15T00:41:34;11.10;99.90
4366;DHT22;2196;47.422;9.656;2023-05-15T00:44:04;11.10;99.90
4366;DHT22;2196;47.422;9.656;2023-05-15T00:46:34;11.10;99.90
4366;DHT22;2196;47.422;9.656;2023-05-15T00:49:02;11.00;99.90
4366;DHT22;2196;47.422;9.656;2023-05-15T00:51:30;11.00;99.90
4366;DHT22;2196;47.422;9.656;2023-05-15T00:53:57;11.10;99.90
4366;DHT22;2196;47.422;9.656;2023-05-15T00:56:25;11.00;99.90
4366;DHT22;2196;47.422;9.656;2023-05-15T00:58:54;11.00;99.90
4366;DHT22;2196;47.422;9.656;2023-05-15T01:01:25;11.00;99.90
4366;DHT22;2196;47.422;9.656;2023-05-15T01:03:53;11.00;99.90
4366;DHT22;2196;47.422;9.656;2023-05-15T01:06:20;11.00;99.90
4366;DHT22;2196;47.422;9.656;2023-05-15T01:08:48;11.10;99.90
4366;DHT22;2196;47.422;9.656;2023-05-15T01:11:16;11.10;99.90
4366;DHT22;2196;47.422;9.656;2023-05-15T01:13:43;11.10;99.90
4366;DHT22;2196;47.422;9.656;2023-05-15T01:16:10;11.10;99.90
4366;DHT22;2196;47.422;9.656;2023-05-15T01:18:39;11.10;99.90
4366;DHT22;2196;47.422;9.656;2023-05-15T01:24:10;11.10;99.90
4366;DHT22;2196;47.422;9.656;2023-05-15T01:29:49;11.10;99.90
4366;DHT22;2196;47.422;9.656;2023-05-15T01:32:19;11.10;99.90
4366;DHT22;2196;47.422;9.656;2023-05-15T01:34:55;11.10;99.90
4366;DHT22;2196;47.422;9.656;2023-05-15T01:37:24;11.10;99.90
4366;DHT22;2196;47.422;9.656;2023-05-15T01:39:57;11.10;99.90
4366;DHT22;2196;47.422;9.656;2023-05-15T01:42:30;11.10;99.90
4366;DHT22;2196;47.422;9.656;2023-05-15T01:45:02;11.10;99.90
4366;DHT22;2196;47.422;9.656;2023-05-15T01:47:37;11.00;99.90
4366;DHT22;2196;47.422;9.656;2023-05-15T01:50:06;11.00;99.90
4366;DHT22;2196;47.422;9.656;2023-05-15T01:52:39;11.00;99.90
4366;DHT22;2196;47.422;9.656;2023-05-15T01:55:08;11.00;99.90
4366;DHT22;2196;47.422;9.656;2023-05-15T01:57:36;11.00;99.90
4366;DHT22;2196;47.422;9.656;2023-05-15T02:00:07;11.00;99.90
4366;DHT22;2196;47.422;9.656;2023-05-15T02:02:35;11.10;99.90
4366;DHT22;2196;47.422;9.656;2023-05-15T02:05:06;11.10;99.90
4366;DHT22;2196;47.422;9.656;2023-05-15T02:07:33;11.10;99.90
4366;DHT22;2196;47.422;9.656;2023-05-15T02:10:05;11.10;99.90
4366;DHT22;2196;47.422;9.656;2023-05-15T02:12:32;11.10;99.90
4366;DHT22;2196;47.422;9.656;2023-05-15T02:15:05;11.10;99.90
4366;DHT22;2196;47.422;9.656;2023-05-15T02:17:32;11.00;99.90
4366;DHT22;2196;47.422;9.656;2023-05-15T02:19:59;11.00;99.90
4366;DHT22;2196;47.422;9.656;2023-05-15T02:22:26;11.00;99.90
4366;DHT22;2196;47.422;9.656;2023-05-15T02:24:53;10.90;99.90
4366;DHT22;2196;47.422;9.656;2023-05-15T02:27:23;10.90;99.90
4366;DHT22;2196;47.422;9.656;2023-05-15T02:30:02;10.90;99.90
4366;DHT22;2196;47.422;9.656;2023-05-15T02:32:40;10.90;99.90
4366;DHT22;2196;47.422;9.656;2023-05-15T02:35:16;10.80;99.90
4366;DHT22;2196;47.422;9.656;2023-05-15T02:37:47;10.70;99.90
4366;DHT22;2196;47.422;9.656;2023-05-15T02:40:15;10.80;99.90
4366;DHT22;2196;47.422;9.656;2023-05-15T02:42:43;10.80;99.90
4366;DHT22;2196;47.422;9.656;2023-05-15T02:45:11;10.70;99.90
4366;DHT22;2196;47.422;9.656;2023-05-15T02:47:40;10.70;99.90
4366;DHT22;2196;47.422;9.656;2023-05-15T02:50:09;10.70;99.90
4366;DHT22;2196;47.422;9.656;2023-05-15T02:52:37;10.70;99.90
4366;DHT22;2196;47.422;9.656;2023-05-15T02:55:06;10.80;99.90
4366;DHT22;2196;47.422;9.656;2023-05-15T02:57:33;10.70;99.90
4366;DHT22;2196;47.422;9.656;2023-05-15T03:00:00;10.60;99.90
4366;DHT22;2196;47.422;9.656;2023-05-15T03:02:29;10.60;99.90
4366;DHT22;2196;47.422;9.656;2023-05-15T03:04:58;10.70;99.90
4366;DHT22;2196;47.422;9.656;2023-05-15T03:07:25;10.70;99.90
4366;DHT22;2196;47.422;9.656;2023-05-15T03:09:52;10.60;99.90
4366;DHT22;2196;47.422;9.656;2023-05-15T03:12:19;10.60;99.90
4366;DHT22;2196;47.422;9.656;2023-05-15T03:14:45;10.60;99.90
4366;DHT22;2196;47.422;9.656;2023-05-15T03:17:22;10.60;99.90
4366;DHT22;2196;47.422;9.656;2023-05-15T03:19:52;10.60;99.90
4366;DHT22;2196;47.422;9.656;2023-05-15T03:22:20;10.60;99.90
4366;DHT22;2196;47.422;9.656;2023-05-15T03:24:47;10.60;99.90
4366;DHT22;2196;47.422;9.656;2023-05-15T03:27:14;10.60;99.90
4366;DHT22;2196;47.422;9.656;2023-05-15T03:29:42;10.60;99.90
4366;DHT22;2196;47.422;9.656;2023-05-15T03:32:09;10.60;99.90
4366;DHT22;2196;47.422;9.656;2023-05-15T03:34:36;10.60;99.90
4366;DHT22;2196;47.422;9.656;2023-05-15T03:37:03;10.60;99.90
4366;DHT22;2196;47.422;9.656;2023-05-15T03:39:32;10.60;99.90
4366;DHT22;2196;47.422;9.656;2023-05-15T03:41:59;10.60;99.90
4366;DHT22;2196;47.422;9.656;2023-05-15T03:44:26;10.60;99.90
4366;DHT22;2196;47.422;9.656;2023-05-15T03:46:54;10.70;99.90
4366;DHT22;2196;47.422;9.656;2023-05-15T03:49:21;10.60;99.90
4366;DHT22;2196;47.422;9.656;2023-05-15T03:51:48;10.60;99.90
4366;DHT22;2196;47.422;9.656;2023-05-15T03:54:15;10.60;99.90
4366;DHT22;2196;47.422;9.656;2023-05-15T03:56:43;10.60;99.90
4366;DHT22;2196;47.422;9.656;2023-05-15T03:59:10;10.60;99.90
4366;DHT22;2196;47.422;9.656;2023-05-15T04:01:37;10.50;99.90
4366;DHT22;2196;47.422;9.656;2023-05-15T04:04:04;10.50;99.90
4366;DHT22;2196;47.422;9.656;2023-05-15T04:06:31;10.50;99.90
4366;DHT22;2196;47.422;9.656;2023-05-15T04:08:58;10.60;99.90
4366;DHT22;2196;47.422;9.656;2023-05-15T04:11:25;10.50;99.90
4366;DHT22;2196;47.422;9.656;2023-05-15T04:13:54;10.50;99.90
4366;DHT22;2196;47.422;9.656;2023-05-15T04:16:21;10.50;99.90
4366;DHT22;2196;47.422;9.656;2023-05-15T04:18:48;10.50;99.90
4366;DHT22;2196;47.422;9.656;2023-05-15T04:21:15;10.50;99.90
4366;DHT22;2196;47.422;9.656;2023-05-15T04:23:42;10.50;99.90
4366;DHT22;2196;47.422;9.656;2023-05-15T04:26:09;10.50;99.90
4366;DHT22;2196;47.422;9.656;2023-05-15T04:28:36;10.50;99.90
4366;DHT22;2196;47.422;9.656;2023-05-15T04:31:05;10.60;99.90
4366;DHT22;2196;47.422;9.656;2023-05-15T04:33:32;10.60;99.90
4366;DHT22;2196;47.422;9.656;2023-05-15T04:35:58;10.60;99.90
4366;DHT22;2196;47.422;9.656;2023-05-15T04:38:26;10.60;99.90
4366;DHT22;2196;47.422;9.656;2023-05-15T04:40:53;10.70;99.90
4366;DHT22;2196;47.422;9.656;2023-05-15T04:43:20;10.70;99.90
4366;DHT22;2196;47.422;9.656;2023-05-15T04:45:47;10.80;99.90
4366;DHT22;2196;47.422;9.656;2023-05-15T04:48:15;10.80;99.90
4366;DHT22;2196;47.422;9.656;2023-05-15T04:50:43;10.80;99.90
4366;DHT22;2196;47.422;9.656;2023-05-15T04:53:10;10.70;99.90
4366;DHT22;2196;47.422;9.656;2023-05-15T04:55:37;10.70;99.90
4366;DHT22;2196;47.422;9.656;2023-05-15T04:58:04;10.80;99.90
4366;DHT22;2196;47.422;9.656;2023-05-15T05:00:31;10.80;99.90
4366;DHT22;2196;47.422;9.656;2023-05-15T05:02:58;10.80;99.90
4366;DHT22;2196;47.422;9.656;2023-05-15T05:05:26;10.90;99.90
4366;DHT22;2196;47.422;9.656;2023-05-15T05:07:53;10.90;99.90
4366;DHT22;2196;47.422;9.656;2023-05-15T05:10:20;10.90;99.90
4366;DHT22;2196;47.422;9.656;2023-05-15T05:12:47;10.90;99.90
4366;DHT22;2196;47.422;9.656;2023-05-15T05:15:14;11.00;99.90
4366;DHT22;2196;47.422;9.656;2023-05-15T05:17:41;11.00;99.90
4366;DHT22;2196;47.422;9.656;2023-05-15T05:20:09;11.00;99.90
4366;DHT22;2196;47.422;9.656;2023-05-15T05:22:39;11.10;99.90
4366;DHT22;2196;47.422;9.656;2023-05-15T05:25:07;11.10;99.90
4366;DHT22;2196;47.422;9.656;2023-05-15T05:27:37;11.20;99.90
4366;DHT22;2196;47.422;9.656;2023-05-15T05:30:06;11.30;99.90
4366;DHT22;2196;47.422;9.656;2023-05-15T05:32:33;11.40;99.90
4366;DHT22;2196;47.422;9.656;2023-05-15T05:35:03;11.40;99.90
4366;DHT22;2196;47.422;9.656;2023-05-15T05:37:30;11.40;99.90
4366;DHT22;2196;47.422;9.656;2023-05-15T05:40:02;11.50;99.90
4366;DHT22;2196;47.422;9.656;2023-05-15T05:42:31;11.50;99.90
4366;DHT22;2196;47.422;9.656;2023-05-15T05:44:58;11.60;99.90
4366;DHT22;2196;47.422;9.656;2023-05-15T05:47:33;11.60;99.90
4366;DHT22;2196;47.422;9.656;2023-05-15T05:50:00;11.70;99.90
4366;DHT22;2196;47.422;9.656;2023-05-15T05:52:27;11.70;99.90
4366;DHT22;2196;47.422;9.656;2023-05-15T05:54:54;11.70;99.90
4366;DHT22;2196;47.422;9.656;2023-05-15T05:57:21;11.80;99.90
4366;DHT22;2196;47.422;9.656;2023-05-15T05:59:48;11.80;99.90
4366;DHT22;2196;47.422;9.656;2023-05-15T06:02:15;11.80;99.90
4366;DHT22;2196;47.422;9.656;2023-05-15T06:04:44;11.70;99.90
4366;DHT22;2196;47.422;9.656;2023-05-15T06:07:11;11.60;99.90
4366;DHT22;2196;47.422;9.656;2023-05-15T06:09:38;11.70;99.90
4366;DHT22;2196;47.422;9.656;2023-05-15T06:12:06;11.70;99.90
4366;DHT22;2196;47.422;9.656;2023-05-15T06:14:34;11.70;99.90
4366;DHT22;2196;47.422;9.656;2023-05-15T06:17:01;11.70;99.90
4366;DHT22;2196;47.422;9.656;2023-05-15T06:19:28;11.70;99.90
4366;DHT22;2196;47.422;9.656;2023-05-15T06:21:57;11.70;99.90
4366;DHT22;2196;47.422;9.656;2023-05-15T06:24:24;11.70;99.90
4366;DHT22;2196;47.422;9.656;2023-05-15T06:26:51;11.70;99.90
4366;DHT22;2196;47.422;9.656;2023-05-15T06:29:19;11.70;99.90
4366;DHT22;2196;47.422;9.656;2023-05-15T06:31:46;11.70;99.90
4366;DHT22;2196;47.422;9.656;2023-05-15T06:34:13;11.80;99.90
4366;DHT22;2196;47.422;9.656;2023-05-15T06:36:40;11.90;99.90
4366;DHT22;2196;47.422;9.656;2023-05-15T06:39:09;11.90;99.90
4366;DHT22;2196;47.422;9.656;2023-05-15T06:41:36;12.00;99.90
4366;DHT22;2196;47.422;9.656;2023-05-15T06:44:03;12.10;99.90
4366;DHT22;2196;47.422;9.656;2023-05-15T06:46:30;12.10;99.90
4366;DHT22;2196;47.422;9.656;2023-05-15T06:48:57;12.20;99.90
4366;DHT22;2196;47.422;9.656;2023-05-15T06:51:24;12.30;99.90
4366;DHT22;2196;47.422;9.656;2023-05-15T06:53:51;12.30;99.90
4366;DHT22;2196;47.422;9.656;2023-05-15T06:56:20;12.40;99.90
4366;DHT22;2196;47.422;9.656;2023-05-15T06:58:47;12.30;99.90
4366;DHT22;2196;47.422;9.656;2023-05-15T07:01:14;12.30;99.90
4366;DHT22;2196;47.422;9.656;2023-05-15T07:03:41;12.30;99.90
4366;DHT22;2196;47.422;9.656;2023-05-15T07:06:08;12.20;99.90
4366;DHT22;2196;47.422;9.656;2023-05-15T07:08:35;12.10;99.90
4366;DHT22;2196;47.422;9.656;2023-05-15T07:11:03;12.00;99.90
4366;DHT22;2196;47.422;9.656;2023-05-15T07:13:31;12.00;99.90
4366;DHT22;2196;47.422;9.656;2023-05-15T07:15:58;12.00;99.90
4366;DHT22;2196;47.422;9.656;2023-05-15T07:18:25;12.00;99.90
4366;DHT22;2196;47.422;9.656;2023-05-15T07:20:52;11.90;99.90
4366;DHT22;2196;47.422;9.656;2023-05-15T07:23:19;11.90;99.90
4366;DHT22;2196;47.422;9.656;2023-05-15T07:25:46;11.90;99.90
4366;DHT22;2196;47.422;9.656;2023-05-15T07:28:13;11.90;99.90
4366;DHT22;2196;47.422;9.656;2023-05-15T07:30:42;11.90;99.90
4366;DHT22;2196;47.422;9.656;2023-05-15T07:33:09;11.90;99.90
4366;DHT22;2196;47.422;9.656;2023-05-15T07:35:36;11.80;99.90
4366;DHT22;2196;47.422;9.656;2023-05-15T07:38:03;11.80;99.90
4366;DHT22;2196;47.422;9.656;2023-05-15T07:40:30;11.80;99.90
4366;DHT22;2196;47.422;9.656;2023-05-15T07:42:57;11.80;99.90
4366;DHT22;2196;47.422;9.656;2023-05-15T07:45:24;11.90;99.90
4366;DHT22;2196;47.422;9.656;2023-05-15T07:47:52;11.90;99.90
4366;DHT22;2196;47.422;9.656;2023-05-15T07:50:20;12.00;99.90
4366;DHT22;2196;47.422;9.656;2023-05-15T07:52:47;12.20;99.90
4366;DHT22;2196;47.422;9.656;2023-05-15T07:55:14;12.20;99.90
4366;DHT22;2196;47.422;9.656;2023-05-15T07:57:41;12.30;99.90
4366;DHT22;2196;47.422;9.656;2023-05-15T08:00:09;12.50;99.90
4366;DHT22;2196;47.422;9.656;2023-05-15T08:02:38;12.70;99.90
4366;DHT22;2196;47.422;9.656;2023-05-15T08:05:07;12.70;99.90
4366;DHT22;2196;47.422;9.656;2023-05-15T08:07:34;12.80;99.90
4366;DHT22;2196;47.422;9.656;2023-05-15T08:10:05;12.70;99.90
4366;DHT22;2196;47.422;9.656;2023-05-15T08:12:32;12.70;99.90
4366;DHT22;2196;47.422;9.656;2023-05-15T08:15:02;12.60;99.90
4366;DHT22;2196;47.422;9.656;2023-05-15T08:17:29;12.60;99.90
4366;DHT22;2196;47.422;9.656;2023-05-15T08:19:56;12.50;99.90
4366;DHT22;2196;47.422;9.656;2023-05-15T08:22:25;12.40;99.90
4366;DHT22;2196;47.422;9.656;2023-05-15T08:24:51;12.30;99.90
4366;DHT22;2196;47.422;9.656;2023-05-15T08:27:18;12.30;99.90
4366;DHT22;2196;47.422;9.656;2023-05-15T08:29:45;12.30;99.90
4366;DHT22;2196;47.422;9.656;2023-05-15T08:32:12;12.40;99.90
4366;DHT22;2196;47.422;9.656;2023-05-15T08:34:39;12.50;99.90
4366;DHT22;2196;47.422;9.656;2023-05-15T08:37:06;12.50;99.90
4366;DHT22;2196;47.422;9.656;2023-05-15T08:39:34;12.50;99.90
4366;DHT22;2196;47.422;9.656;2023-05-15T08:42:09;12.70;99.90
4366;DHT22;2196;47.422;9.656;2023-05-15T08:44:38;12.70;99.90
4366;DHT22;2196;47.422;9.656;2023-05-15T08:47:05;12.70;99.90
4366;DHT22;2196;47.422;9.656;2023-05-15T08:49:38;12.60;99.90
4366;DHT22;2196;47.422;9.656;2023-05-15T08:52:08;12.60;99.90
4366;DHT22;2196;47.422;9.656;2023-05-15T08:54:37;12.60;99.90
4366;DHT22;2196;47.422;9.656;2023-05-15T08:57:04;12.50;99.90
4366;DHT22;2196;47.422;9.656;2023-05-15T08:59:31;12.50;99.90
4366;DHT22;2196;47.422;9.656;2023-05-15T09:01:59;12.50;99.90
4366;DHT22;2196;47.422;9.656;2023-05-15T09:04:26;12.60;99.90
4366;DHT22;2196;47.422;9.656;2023-05-15T09:06:53;12.50;99.90
4366;DHT22;2196;47.422;9.656;2023-05-15T09:09:20;12.40;99.90
4366;DHT22;2196;47.422;9.656;2023-05-15T09:11:51;12.50;99.90
4366;DHT22;2196;47.422;9.656;2023-05-15T09:14:18;12.50;99.90
4366;DHT22;2196;47.422;9.656;2023-05-15T09:16:45;12.60;99.90
4366;DHT22;2196;47.422;9.656;2023-05-15T09:19:18;12.80;99.90
4366;DHT22;2196;47.422;9.656;2023-05-15T09:21:45;13.00;99.90
4366;DHT22;2196;47.422;9.656;2023-05-15T09:24:16;13.10;99.90
4366;DHT22;2196;47.422;9.656;2023-05-15T09:26:43;13.20;99.90
4366;DHT22;2196;47.422;9.656;2023-05-15T09:29:15;13.20;99.90
4366;DHT22;2196;47.422;9.656;2023-05-15T09:31:44;13.30;99.90
4366;DHT22;2196;47.422;9.656;2023-05-15T09:34:12;13.50;99.90
4366;DHT22;2196;47.422;9.656;2023-05-15T09:36:41;13.60;99.90
4366;DHT22;2196;47.422;9.656;2023-05-15T09:39:09;13.60;99.90
4366;DHT22;2196;47.422;9.656;2023-05-15T09:41:40;13.80;99.90
4366;DHT22;2196;47.422;9.656;2023-05-15T09:44:17;13.90;99.90
4366;DHT22;2196;47.422;9.656;2023-05-15T09:46:45;14.10;99.90
4366;DHT22;2196;47.422;9.656;2023-05-15T09:49:12;14.40;99.90
4366;DHT22;2196;47.422;9.656;2023-05-15T09:51:39;14.70;99.90
4366;DHT22;2196;47.422;9.656;2023-05-15T09:54:13;14.80;99.90
4366;DHT22;2196;47.422;9.656;2023-05-15T09:56:42;15.10;99.90
4366;DHT22;2196;47.422;9.656;2023-05-15T09:59:12;15.40;99.90
4366;DHT22;2196;47.422;9.656;2023-05-15T10:01:43;15.70;99.90
4366;DHT22;2196;47.422;9.656;2023-05-15T10:04:11;16.20;99.90
4366;DHT22;2196;47.422;9.656;2023-05-15T10:06:40;16.40;99.90
4366;DHT22;2196;47.422;9.656;2023-05-15T10:09:08;16.50;99.90
4366;DHT22;2196;47.422;9.656;2023-05-15T10:11:37;16.60;99.90
4366;DHT22;2196;47.422;9.656;2023-05-15T10:14:06;16.40;99.90
4366;DHT22;2196;47.422;9.656;2023-05-15T10:16:35;16.40;99.90
4366;DHT22;2196;47.422;9.656;2023-05-15T10:19:05;16.50;99.90
4366;DHT22;2196;47.422;9.656;2023-05-15T10:21:34;16.30;99.90
4366;DHT22;2196;47.422;9.656;2023-05-15T10:24:02;16.00;99.90
4366;DHT22;2196;47.422;9.656;2023-05-15T10:26:34;15.80;99.90
4366;DHT22;2196;47.422;9.656;2023-05-15T10:29:04;15.90;99.90
4366;DHT22;2196;47.422;9.656;2023-05-15T10:31:32;16.10;99.90
4366;DHT22;2196;47.422;9.656;2023-05-15T10:34:00;16.30;99.90
4366;DHT22;2196;47.422;9.656;2023-05-15T10:36:29;16.50;99.90
4366;DHT22;2196;47.422;9.656;2023-05-15T10:38:57;16.80;99.90
4366;DHT22;2196;47.422;9.656;2023-05-15T10:41:27;17.10;99.90
4366;DHT22;2196;47.422;9.656;2023-05-15T10:43:54;17.80;99.90
4366;DHT22;2196;47.422;9.656;2023-05-15T10:46:24;18.60;99.90
4366;DHT22;2196;47.422;9.656;2023-05-15T10:48:51;19.30;99.90
4366;DHT22;2196;47.422;9.656;2023-05-15T10:51:23;19.20;99.90
4366;DHT22;2196;47.422;9.656;2023-05-15T10:53:52;19.20;99.90
4366;DHT22;2196;47.422;9.656;2023-05-15T10:56:19;18.90;99.90
4366;DHT22;2196;47.422;9.656;2023-05-15T10:58:48;18.90;99.90
4366;DHT22;2196;47.422;9.656;2023-05-15T11:01:25;18.30;99.90
4366;DHT22;2196;47.422;9.656;2023-05-15T11:04:04;18.30;99.90
4366;DHT22;2196;47.422;9.656;2023-05-15T11:06:32;18.10;99.90
4366;DHT22;2196;47.422;9.656;2023-05-15T11:12:02;17.80;99.90
4366;DHT22;2196;47.422;9.656;2023-05-15T11:14:30;17.60;99.90
4366;DHT22;2196;47.422;9.656;2023-05-15T11:17:02;17.20;99.90
4366;DHT22;2196;47.422;9.656;2023-05-15T11:19:38;17.10;99.90
4366;DHT22;2196;47.422;9.656;2023-05-15T11:22:17;16.90;99.90
4366;DHT22;2196;47.422;9.656;2023-05-15T11:24:52;16.70;99.90
4366;DHT22;2196;47.422;9.656;2023-05-15T11:27:22;16.60;99.90
4366;DHT22;2196;47.422;9.656;2023-05-15T11:30:09;16.60;99.90
4366;DHT22;2196;47.422;9.656;2023-05-15T11:32:44;16.40;99.90
4366;DHT22;2196;47.422;9.656;2023-05-15T11:35:12;16.40;99.90
4366;DHT22;2196;47.422;9.656;2023-05-15T11:37:41;16.60;99.90
4366;DHT22;2196;47.422;9.656;2023-05-15T11:40:12;16.90;99.90
4366;DHT22;2196;47.422;9.656;2023-05-15T11:42:42;17.10;99.90
4366;DHT22;2196;47.422;9.656;2023-05-15T11:45:23;17.20;99.90
4366;DHT22;2196;47.422;9.656;2023-05-15T11:47:50;17.30;99.90
4366;DHT22;2196;47.422;9.656;2023-05-15T11:50:19;17.10;99.90
4366;DHT22;2196;47.422;9.656;2023-05-15T11:52:48;17.10;99.90
4366;DHT22;2196;47.422;9.656;2023-05-15T11:55:15;17.20;99.90
4366;DHT22;2196;47.422;9.656;2023-05-15T11:57:46;17.20;99.90
4366;DHT22;2196;47.422;9.656;2023-05-15T12:00:13;17.20;99.90
4366;DHT22;2196;47.422;9.656;2023-05-15T12:02:40;17.20;99.90
4366;DHT22;2196;47.422;9.656;2023-05-15T12:05:08;17.10;99.90
4366;DHT22;2196;47.422;9.656;2023-05-15T12:07:40;16.80;99.90
4366;DHT22;2196;47.422;9.656;2023-05-15T12:10:09;16.80;99.90
4366;DHT22;2196;47.422;9.656;2023-05-15T12:12:39;16.60;99.90
4366;DHT22;2196;47.422;9.656;2023-05-15T12:15:10;16.70;99.90
4366;DHT22;2196;47.422;9.656;2023-05-15T12:17:37;16.80;99.90
4366;DHT22;2196;47.422;9.656;2023-05-15T12:20:10;16.80;99.90
4366;DHT22;2196;47.422;9.656;2023-05-15T12:22:38;16.90;99.90
4366;DHT22;2196;47.422;9.656;2023-05-15T12:25:07;17.00;99.90
4366;DHT22;2196;47.422;9.656;2023-05-15T12:27:39;17.00;99.90
4366;DHT22;2196;47.422;9.656;2023-05-15T12:30:07;17.20;99.90
4366;DHT22;2196;47.422;9.656;2023-05-15T12:32:39;17.30;99.90
4366;DHT22;2196;47.422;9.656;2023-05-15T12:35:07;17.40;99.90
4366;DHT22;2196;47.422;9.656;2023-05-15T12:37:38;17.20;99.90
4366;DHT22;2196;47.422;9.656;2023-05-15T12:40:06;17.20;99.90
4366;DHT22;2196;47.422;9.656;2023-05-15T12:42:41;17.10;99.90
4366;DHT22;2196;47.422;9.656;2023-05-15T12:45:12;17.10;99.90
4366;DHT22;2196;47.422;9.656;2023-05-15T12:47:42;17.20;99.90
4366;DHT22;2196;47.422;9.656;2023-05-15T12:50:13;17.30;99.90
4366;DHT22;2196;47.422;9.656;2023-05-15T12:52:46;17.40;99.90
4366;DHT22;2196;47.422;9.656;2023-05-15T12:55:15;17.10;99.90
4366;DHT22;2196;47.422;9.656;2023-05-15T12:57:43;16.80;99.90
4366;DHT22;2196;47.422;9.656;2023-05-15T13:00:11;16.80;99.90
4366;DHT22;2196;47.422;9.656;2023-05-15T13:02:43;16.90;99.90
4366;DHT22;2196;47.422;9.656;2023-05-15T13:05:10;16.90;99.90
4366;DHT22;2196;47.422;9.656;2023-05-15T13:07:39;16.70;99.90
4366;DHT22;2196;47.422;9.656;2023-05-15T13:10:07;16.70;99.90
4366;DHT22;2196;47.422;9.656;2023-05-15T13:12:40;16.60;99.90
4366;DHT22;2196;47.422;9.656;2023-05-15T13:15:21;16.50;99.90
4366;DHT22;2196;47.422;9.656;2023-05-15T13:17:52;16.50;99.90
4366;DHT22;2196;47.422;9.656;2023-05-15T13:20:22;16.60;99.90
4366;DHT22;2196;47.422;9.656;2023-05-15T13:22:49;16.70;99.90
4366;DHT22;2196;47.422;9.656;2023-05-15T13:25:17;16.70;99.90
4366;DHT22;2196;47.422;9.656;2023-05-15T13:27:44;16.90;99.90
4366;DHT22;2196;47.422;9.656;2023-05-15T13:30:12;17.00;99.90
4366;DHT22;2196;47.422;9.656;2023-05-15T13:32:39;17.20;99.90
4366;DHT22;2196;47.422;9.656;2023-05-15T13:35:08;17.20;99.90
4366;DHT22;2196;47.422;9.656;2023-05-15T13:37:37;17.30;99.90
4366;DHT22;2196;47.422;9.656;2023-05-15T13:40:08;17.30;99.90
4366;DHT22;2196;47.422;9.656;2023-05-15T13:42:35;17.30;99.90
4366;DHT22;2196;47.422;9.656;2023-05-15T13:45:04;17.30;99.90
4366;DHT22;2196;47.422;9.656;2023-05-15T13:47:31;17.50;99.90
4366;DHT22;2196;47.422;9.656;2023-05-15T13:50:04;17.60;99.90
4366;DHT22;2196;47.422;9.656;2023-05-15T13:52:37;17.70;99.90
4366;DHT22;2196;47.422;9.656;2023-05-15T13:55:05;17.80;99.90
4366;DHT22;2196;47.422;9.656;2023-05-15T13:57:39;17.60;99.90
4366;DHT22;2196;47.422;9.656;2023-05-15T14:00:07;17.60;99.90
4366;DHT22;2196;47.422;9.656;2023-05-15T14:02:39;17.60;99.90
4366;DHT22;2196;47.422;9.656;2023-05-15T14:05:08;17.70;99.90
4366;DHT22;2196;47.422;9.656;2023-05-15T14:07:40;17.80;99.90
4366;DHT22;2196;47.422;9.656;2023-05-15T14:10:08;17.80;99.90
4366;DHT22;2196;47.422;9.656;2023-05-15T14:12:37;17.80;99.90
4366;DHT22;2196;47.422;9.656;2023-05-15T14:15:05;17.90;99.90
4366;DHT22;2196;47.422;9.656;2023-05-15T14:17:32;17.80;99.90
4366;DHT22;2196;47.422;9.656;2023-05-15T14:19:59;17.70;99.90
4366;DHT22;2196;47.422;9.656;2023-05-15T14:22:26;17.70;99.90
4366;DHT22;2196;47.422;9.656;2023-05-15T14:24:55;17.80;99.90
4366;DHT22;2196;47.422;9.656;2023-05-15T14:27:22;17.80;99.90
4366;DHT22;2196;47.422;9.656;2023-05-15T14:29:49;17.80;99.90
4366;DHT22;2196;47.422;9.656;2023-05-15T14:32:16;17.80;99.90
4366;DHT22;2196;47.422;9.656;2023-05-15T14:34:43;17.90;99.90
4366;DHT22;2196;47.422;9.656;2023-05-15T14:37:10;17.80;99.90
4366;DHT22;2196;47.422;9.656;2023-05-15T14:39:37;17.80;99.90
4366;DHT22;2196;47.422;9.656;2023-05-15T14:42:06;17.90;99.90
4366;DHT22;2196;47.422;9.656;2023-05-15T14:44:33;17.90;99.90
4366;DHT22;2196;47.422;9.656;2023-05-15T14:47:07;18.00;99.90
4366;DHT22;2196;47.422;9.656;2023-05-15T14:49:34;17.90;99.90
4366;DHT22;2196;47.422;9.656;2023-05-15T14:52:03;17.90;99.90
4366;DHT22;2196;47.422;9.656;2023-05-15T14:54:30;17.90;99.90
4366;DHT22;2196;47.422;9.656;2023-05-15T14:56:57;17.90;99.90
4366;DHT22;2196;47.422;9.656;2023-05-15T14:59:26;17.70;99.90
4366;DHT22;2196;47.422;9.656;2023-05-15T15:01:53;17.40;99.90
4366;DHT22;2196;47.422;9.656;2023-05-15T15:04:20;17.30;99.90
4366;DHT22;2196;47.422;9.656;2023-05-15T15:06:47;17.40;99.90
4366;DHT22;2196;47.422;9.656;2023-05-15T15:09:14;17.50;99.90
4366;DHT22;2196;47.422;9.656;2023-05-15T15:11:41;17.70;99.90
4366;DHT22;2196;47.422;9.656;2023-05-15T15:14:08;17.60;99.90
4366;DHT22;2196;47.422;9.656;2023-05-15T15:16:37;17.50;99.90
4366;DHT22;2196;47.422;9.656;2023-05-15T15:19:04;17.10;99.90
4366;DHT22;2196;47.422;9.656;2023-05-15T15:21:30;16.80;99.90
4366;DHT22;2196;47.422;9.656;2023-05-15T15:23:59;16.60;99.90
4366;DHT22;2196;47.422;9.656;2023-05-15T15:26:25;16.40;99.90
4366;DHT22;2196;47.422;9.656;2023-05-15T15:28:52;16.20;99.90
4366;DHT22;2196;47.422;9.656;2023-05-15T15:31:25;16.10;99.90
4366;DHT22;2196;47.422;9.656;2023-05-15T15:33:53;16.00;99.90
4366;DHT22;2196;47.422;9.656;2023-05-15T15:36:20;16.00;99.90
4366;DHT22;2196;47.422;9.656;2023-05-15T15:38:47;15.90;99.90
4366;DHT22;2196;47.422;9.656;2023-05-15T15:41:14;15.80;99.90
4366;DHT22;2196;47.422;9.656;2023-05-15T15:43:41;15.80;99.90
4366;DHT22;2196;47.422;9.656;2023-05-15T15:46:08;15.90;99.90
4366;DHT22;2196;47.422;9.656;2023-05-15T15:48:35;15.80;99.90
4366;DHT22;2196;47.422;9.656;2023-05-15T15:51:04;15.90;99.90
4366;DHT22;2196;47.422;9.656;2023-05-15T15:53:31;15.90;99.90
4366;DHT22;2196;47.422;9.656;2023-05-15T15:55:59;15.80;99.90
4366;DHT22;2196;47.422;9.656;2023-05-15T15:58:26;15.60;99.90
4366;DHT22;2196;47.422;9.656;2023-05-15T16:00:53;15.60;99.90
4366;DHT22;2196;47.422;9.656;2023-05-15T16:03:20;15.50;99.90
4366;DHT22;2196;47.422;9.656;2023-05-15T16:05:47;15.60;99.90
4366;DHT22;2196;47.422;9.656;2023-05-15T16:08:15;15.70;99.90
4366;DHT22;2196;47.422;9.656;2023-05-15T16:10:42;15.80;99.90
4366;DHT22;2196;47.422;9.656;2023-05-15T16:13:09;15.90;99.90
4366;DHT22;2196;47.422;9.656;2023-05-15T16:15:36;16.00;99.90
4366;DHT22;2196;47.422;9.656;2023-05-15T16:18:03;16.20;99.90
4366;DHT22;2196;47.422;9.656;2023-05-15T16:20:30;16.40;99.90